TimeMDT,TemperatureF,Dew PointF,Humidity,Sea Level PressureIn,VisibilityMPH,Wind Direction,Wind SpeedMPH,Gust SpeedMPH,PrecipitationIn,Events,Conditions,WindDirDegrees,DateUTC
12:53 AM,25.0,18.0,75,30.22,10.0,South,5.8,-,N/A,,Mostly Cloudy,180,2011-10-28 06:53:00
1:53 AM,28.9,21.0,72,30.23,10.0,Calm,Calm,-,N/A,,Overcast,0,2011-10-28 07:53:00
2:53 AM,30.0,19.9,66,30.25,10.0,NNE,5.8,-,N/A,,Overcast,20,2011-10-28 08:53:00
3:53 AM,27.0,19.0,72,30.24,10.0,SW,5.8,-,N/A,,Overcast,220,2011-10-28 09:53:00
4:53 AM,28.0,18.0,66,30.25,10.0,Calm,Calm,-,N/A,,Overcast,0,2011-10-28 10:53:00
5:53 AM,30.0,19.0,64,30.27,10.0,SW,6.9,-,N/A,,Scattered Clouds,230,2011-10-28 11:53:00
6:53 AM,30.0,18.0,61,30.28,10.0,WSW,6.9,-,N/A,,Clear,240,2011-10-28 12:53:00
7:53 AM,28.9,18.0,64,30.30,10.0,West,8.1,-,N/A,,Clear,260,2011-10-28 13:53:00
8:53 AM,36.0,19.0,50,30.31,10.0,WSW,9.2,-,N/A,,Clear,240,2011-10-28 14:53:00
9:53 AM,41.0,19.9,43,30.31,10.0,West,9.2,-,N/A,,Clear,260,2011-10-28 15:53:00
10:53 AM,44.1,19.0,37,30.28,10.0,West,9.2,-,N/A,,Clear,260,2011-10-28 16:53:00
11:53 AM,46.0,16.0,30,30.27,10.0,SW,9.2,-,N/A,,Clear,230,2011-10-28 17:53:00
12:53 PM,48.0,16.0,28,30.22,10.0,SSW,9.2,-,N/A,,Clear,210,2011-10-28 18:53:00
1:53 PM,50.0,14.0,24,30.17,10.0,Variable,3.5,-,N/A,,Clear,0,2011-10-28 19:53:00
2:53 PM,51.1,12.0,21,30.13,10.0,Variable,3.5,-,N/A,,Clear,0,2011-10-28 20:53:00
3:53 PM,52.0,12.0,20,30.12,10.0,WSW,4.6,-,N/A,,Clear,240,2011-10-28 21:53:00
4:53 PM,51.1,15.1,24,30.11,10.0,NW,4.6,-,N/A,,Clear,320,2011-10-28 22:53:00
5:53 PM,39.0,19.9,46,30.12,10.0,South,3.5,-,N/A,,Clear,180,2011-10-28 23:53:00
6:53 PM,42.1,19.0,40,30.09,10.0,South,8.1,-,N/A,,Clear,170,2011-10-29 00:53:00
7:53 PM,39.9,18.0,41,30.08,10.0,South,4.6,-,N/A,,Clear,180,2011-10-29 01:53:00
8:53 PM,35.1,16.0,46,30.05,10.0,SSE,6.9,-,N/A,,Clear,160,2011-10-29 02:53:00
9:53 PM,37.9,14.0,38,30.00,10.0,SSE,9.2,-,N/A,,Clear,160,2011-10-29 03:53:00
10:53 PM,36.0,12.9,39,29.97,10.0,SSW,4.6,-,N/A,,Clear,210,2011-10-29 04:53:00
11:53 PM,42.1,12.0,29,29.92,10.0,SW,6.9,-,N/A,,Clear,220,2011-10-29 05:53:00